createdAt,value
2018-09-30T00:02:01.891Z,0.70
2018-09-30T00:04:30.392Z,0.70
2018-09-30T00:06:58.896Z,1.13
2018-09-30T00:09:29.663Z,1.00
2018-09-30T00:11:59.454Z,0.80
2018-09-30T00:14:28.320Z,0.43
2018-09-30T00:16:56.907Z,1.00
2018-09-30T00:19:25.448Z,0.87
2018-09-30T00:21:53.931Z,1.07
2018-09-30T00:24:27.843Z,0.77
2018-09-30T00:26:59.065Z,1.10
2018-09-30T00:29:28.981Z,0.93
2018-09-30T00:31:58.151Z,0.60
2018-09-30T00:34:27.893Z,0.37
2018-09-30T00:36:57.567Z,1.17
2018-09-30T00:39:26.671Z,1.00
2018-09-30T00:41:55.511Z,0.77
2018-09-30T00:44:24.337Z,0.80
2018-09-30T00:46:53.465Z,0.57
2018-09-30T00:49:21.944Z,0.90
2018-09-30T00:51:50.455Z,1.00
2018-09-30T00:54:18.923Z,0.97
2018-09-30T00:56:47.431Z,0.60
2018-09-30T00:59:15.893Z,0.67
2018-09-30T01:01:44.379Z,1.00
2018-09-30T01:04:12.886Z,0.57
2018-09-30T01:06:41.397Z,0.60
2018-09-30T01:09:12.712Z,0.53
2018-09-30T01:11:41.426Z,1.00
2018-09-30T01:14:09.984Z,0.83
2018-09-30T01:16:38.459Z,0.97
2018-09-30T01:19:07.024Z,0.83
2018-09-30T01:21:35.736Z,0.77
2018-09-30T01:24:04.422Z,0.30
2018-09-30T01:26:32.968Z,0.23
2018-09-30T01:29:01.452Z,0.67
2018-09-30T01:31:29.952Z,0.20
2018-09-30T01:33:58.456Z,0.60
2018-09-30T01:36:26.934Z,0.70
2018-09-30T01:38:55.446Z,0.80
2018-09-30T01:41:24.256Z,1.10
2018-09-30T01:43:52.770Z,0.67
2018-09-30T01:46:21.271Z,0.50
2018-09-30T01:48:49.762Z,0.60
2018-09-30T01:51:18.287Z,0.77
2018-09-30T01:53:46.773Z,0.93
2018-09-30T01:56:15.249Z,0.30
2018-09-30T01:58:43.759Z,0.53
2018-09-30T02:01:12.223Z,0.30
2018-09-30T02:03:40.755Z,0.50
2018-09-30T02:06:09.229Z,0.60
2018-09-30T02:08:37.978Z,0.43
2018-09-30T02:11:06.821Z,0.73
2018-09-30T02:13:35.271Z,0.60
2018-09-30T02:16:03.780Z,0.80
2018-09-30T02:18:32.264Z,0.77
2018-09-30T02:21:00.760Z,0.33
2018-09-30T02:23:29.235Z,0.60
2018-09-30T02:25:57.691Z,0.80
2018-09-30T02:28:26.188Z,0.90
2018-09-30T02:30:54.648Z,0.33
2018-09-30T02:33:23.124Z,0.60
2018-09-30T02:35:51.632Z,0.70
2018-09-30T02:38:20.109Z,1.00
2018-09-30T02:40:48.577Z,0.97
2018-09-30T02:43:17.070Z,0.30
2018-09-30T02:45:45.548Z,0.73
2018-09-30T02:48:14.022Z,0.50
2018-09-30T02:50:42.532Z,0.30
2018-09-30T02:53:10.999Z,0.40
2018-09-30T02:55:39.821Z,0.57
2018-09-30T02:58:08.942Z,0.53
2018-09-30T03:00:37.434Z,0.50
2018-09-30T03:03:05.987Z,0.30
2018-09-30T03:05:34.463Z,1.10
2018-09-30T03:08:08.288Z,0.70
2018-09-30T03:10:36.774Z,1.10
2018-09-30T03:13:05.258Z,1.13
2018-09-30T03:15:33.726Z,1.33
2018-09-30T03:18:02.230Z,1.20
2018-09-30T03:20:30.734Z,0.60
2018-09-30T03:22:59.219Z,0.73
2018-09-30T03:25:27.683Z,0.70
2018-09-30T03:27:56.186Z,0.80
2018-09-30T03:30:24.658Z,1.00
2018-09-30T03:32:53.146Z,0.80
2018-09-30T03:35:21.616Z,0.30
2018-09-30T03:37:50.087Z,0.17
2018-09-30T03:40:18.558Z,0.50
2018-09-30T03:42:47.135Z,0.57
2018-09-30T03:45:15.626Z,0.30
2018-09-30T03:47:44.103Z,0.90
2018-09-30T03:50:12.622Z,1.00
2018-09-30T03:52:41.097Z,0.83
2018-09-30T03:55:09.573Z,0.77
2018-09-30T03:57:38.062Z,0.77
2018-09-30T04:00:06.595Z,0.30
2018-09-30T04:02:35.063Z,0.40
2018-09-30T04:05:03.620Z,1.07
2018-09-30T04:07:32.165Z,1.13
2018-09-30T04:10:00.726Z,0.80
2018-09-30T04:12:29.135Z,0.40
2018-09-30T04:14:57.633Z,0.80
2018-09-30T04:17:26.153Z,0.90
2018-09-30T04:19:54.619Z,0.90
2018-09-30T04:22:23.120Z,0.70
2018-09-30T04:24:51.675Z,0.33
2018-09-30T04:27:20.070Z,0.53
2018-09-30T04:29:48.536Z,0.47
2018-09-30T04:32:17.016Z,0.70
2018-09-30T04:34:45.469Z,0.53
2018-09-30T04:37:13.934Z,0.40
2018-09-30T04:39:42.478Z,0.30
2018-09-30T04:42:10.912Z,0.50
2018-09-30T04:44:39.442Z,0.83
2018-09-30T04:47:07.926Z,0.63
2018-09-30T04:49:36.398Z,0.63
2018-09-30T04:52:04.906Z,0.60
2018-09-30T04:54:33.393Z,0.27
2018-09-30T04:57:01.856Z,0.50
2018-09-30T04:59:30.340Z,0.50
2018-09-30T05:01:58.832Z,0.53
2018-09-30T05:04:27.413Z,0.27
2018-09-30T05:06:55.894Z,0.40
2018-09-30T05:09:24.399Z,0.47
2018-09-30T05:11:52.876Z,0.43
2018-09-30T05:14:21.342Z,0.57
2018-09-30T05:16:49.847Z,0.47
2018-09-30T05:19:18.308Z,0.60
2018-09-30T05:21:46.778Z,0.60
2018-09-30T05:24:15.292Z,0.27
2018-09-30T05:26:43.765Z,0.13
2018-09-30T05:29:12.229Z,0.40
2018-09-30T05:31:40.724Z,0.67
2018-09-30T05:34:09.217Z,0.43
2018-09-30T05:36:37.680Z,0.57
2018-09-30T05:39:08.261Z,0.80
2018-09-30T05:41:37.071Z,0.70
2018-09-30T05:44:06.001Z,0.57
2018-09-30T05:46:34.479Z,0.53
2018-09-30T05:49:03.125Z,0.80
2018-09-30T05:51:31.565Z,0.90
2018-09-30T05:54:00.046Z,1.40
2018-09-30T05:56:28.523Z,1.17
2018-09-30T05:58:57.032Z,0.43
2018-09-30T06:01:25.540Z,1.00
2018-09-30T06:03:54.067Z,0.80
2018-09-30T06:06:22.499Z,0.80
2018-09-30T06:08:51.010Z,0.80
2018-09-30T06:11:19.511Z,0.83
2018-09-30T06:13:48.029Z,1.23
2018-09-30T06:16:16.532Z,0.77
2018-09-30T06:18:45.150Z,0.50
2018-09-30T06:21:13.669Z,0.50
2018-09-30T06:23:42.136Z,0.80
2018-09-30T06:26:10.654Z,1.03
2018-09-30T06:28:39.162Z,0.50
2018-09-30T06:31:07.648Z,0.30
2018-09-30T06:33:36.149Z,0.80
2018-09-30T06:36:04.670Z,0.30
2018-09-30T06:38:33.159Z,0.60
2018-09-30T06:41:01.648Z,0.20
2018-09-30T06:43:30.238Z,0.40
2018-09-30T06:45:58.704Z,0.50
2018-09-30T06:48:27.202Z,0.60
2018-09-30T06:50:55.761Z,0.87
2018-09-30T06:53:24.171Z,1.13
2018-09-30T06:55:52.672Z,0.60
2018-09-30T06:58:21.171Z,0.90
2018-09-30T07:00:49.679Z,1.07
2018-09-30T07:03:18.164Z,0.70
2018-09-30T07:05:46.662Z,1.00
2018-09-30T07:08:15.374Z,0.73
2018-09-30T07:10:44.073Z,1.07
2018-09-30T07:13:12.574Z,0.90
2018-09-30T07:15:41.070Z,0.67
2018-09-30T07:18:09.562Z,1.53
2018-09-30T07:20:38.061Z,1.17
2018-09-30T07:23:06.878Z,1.43
2018-09-30T07:25:35.367Z,0.83
2018-09-30T07:28:03.875Z,0.93
2018-09-30T07:30:32.340Z,1.20
2018-09-30T07:33:00.837Z,1.30
2018-09-30T07:35:29.375Z,1.10
2018-09-30T07:37:57.943Z,1.00
2018-09-30T07:40:26.441Z,1.20
2018-09-30T07:42:54.924Z,1.40
2018-09-30T07:45:23.430Z,0.90
2018-09-30T07:47:51.916Z,1.07
2018-09-30T07:50:20.388Z,1.03
2018-09-30T07:52:48.881Z,1.53
2018-09-30T07:55:17.366Z,1.17
2018-09-30T07:57:45.848Z,1.90
2018-09-30T08:00:14.384Z,2.10
2018-09-30T08:02:42.868Z,1.87
2018-09-30T08:05:11.382Z,1.53
2018-09-30T08:07:39.905Z,1.83
2018-09-30T08:10:08.397Z,1.77
2018-09-30T08:12:36.870Z,1.63
2018-09-30T08:15:05.403Z,2.23
2018-09-30T08:17:33.872Z,2.10
2018-09-30T08:20:02.387Z,2.13
2018-09-30T08:22:30.867Z,2.00
2018-09-30T08:24:59.351Z,1.33
2018-09-30T08:27:27.849Z,1.47
2018-09-30T08:29:56.345Z,2.27
2018-09-30T08:32:24.817Z,2.50
2018-09-30T08:34:53.313Z,2.03
2018-09-30T08:37:26.999Z,2.70
2018-09-30T08:39:55.593Z,1.83
2018-09-30T08:42:24.081Z,2.07
2018-09-30T08:44:52.589Z,2.90
2018-09-30T08:47:21.258Z,2.27
2018-09-30T08:49:49.682Z,1.70
2018-09-30T08:52:18.195Z,1.67
2018-09-30T08:54:46.708Z,1.70
2018-09-30T08:57:15.221Z,1.80
2018-09-30T08:59:43.704Z,1.90
2018-09-30T09:02:12.224Z,2.00
2018-09-30T09:04:40.759Z,2.07
2018-09-30T09:07:09.240Z,2.10
2018-09-30T09:09:37.735Z,1.30
2018-09-30T09:12:06.397Z,1.90
2018-09-30T09:14:34.872Z,2.47
2018-09-30T09:17:03.361Z,1.90
2018-09-30T09:19:31.873Z,2.63
2018-09-30T09:22:00.348Z,1.83
2018-09-30T09:24:28.864Z,2.23
2018-09-30T09:26:57.353Z,1.90
2018-09-30T09:29:25.805Z,1.43
2018-09-30T09:31:54.294Z,1.47
2018-09-30T09:34:22.814Z,2.03
2018-09-30T09:36:51.321Z,1.97
2018-09-30T09:39:19.802Z,2.23
2018-09-30T09:41:48.310Z,1.97
2018-09-30T09:44:16.797Z,2.00
2018-09-30T09:46:45.336Z,1.70
2018-09-30T09:49:13.843Z,1.50
2018-09-30T09:51:42.328Z,1.67
2018-09-30T09:54:10.821Z,1.43
2018-09-30T09:56:39.339Z,1.90
2018-09-30T09:59:07.907Z,1.50
2018-09-30T10:01:36.346Z,1.30
2018-09-30T10:04:04.828Z,2.10
2018-09-30T10:06:33.319Z,1.67
2018-09-30T10:09:01.813Z,1.53
2018-09-30T10:11:30.400Z,1.97
2018-09-30T10:13:58.889Z,2.00
2018-09-30T10:16:27.389Z,2.50
2018-09-30T10:18:55.929Z,1.80
2018-09-30T10:21:24.436Z,1.60
2018-09-30T10:23:53.005Z,1.50
2018-09-30T10:26:21.512Z,1.57
2018-09-30T10:28:50.012Z,1.80
2018-09-30T10:31:18.508Z,1.63
2018-09-30T10:33:46.986Z,1.57
2018-09-30T10:36:15.500Z,1.70
2018-09-30T10:38:44.074Z,1.53
2018-09-30T10:41:12.489Z,1.93
2018-09-30T10:43:40.992Z,1.90
2018-09-30T10:46:09.470Z,1.90
2018-09-30T10:48:37.996Z,1.30
2018-09-30T10:51:06.518Z,1.77
2018-09-30T10:53:35.068Z,1.30
2018-09-30T10:56:03.638Z,1.50
2018-09-30T10:58:32.169Z,1.43
2018-09-30T11:01:00.698Z,2.10
2018-09-30T11:03:29.397Z,1.93
2018-09-30T11:05:57.842Z,1.30
2018-09-30T11:08:26.355Z,1.93
2018-09-30T11:10:54.832Z,1.27
2018-09-30T11:13:23.326Z,1.50
2018-09-30T11:15:51.799Z,1.40
2018-09-30T11:18:20.262Z,1.70
2018-09-30T11:20:48.789Z,1.30
2018-09-30T11:23:17.271Z,1.60
2018-09-30T11:25:45.753Z,1.67
2018-09-30T11:28:14.272Z,1.73
2018-09-30T11:30:42.844Z,1.53
2018-09-30T11:33:11.364Z,1.30
2018-09-30T11:35:39.878Z,1.47
2018-09-30T11:38:08.417Z,1.43
2018-09-30T11:40:36.899Z,1.83
2018-09-30T11:43:05.483Z,1.40
2018-09-30T11:45:33.973Z,1.20
2018-09-30T11:48:02.519Z,1.43
2018-09-30T11:50:31.034Z,1.60
2018-09-30T11:52:59.530Z,1.47
2018-09-30T11:55:28.048Z,2.00
2018-09-30T11:57:56.525Z,1.77
2018-09-30T12:00:25.032Z,1.77
2018-09-30T12:02:53.519Z,1.73
2018-09-30T12:05:21.996Z,1.83
2018-09-30T12:07:50.540Z,1.77
2018-09-30T12:10:19.034Z,1.43
2018-09-30T12:12:47.520Z,2.00
2018-09-30T12:15:16.017Z,1.93
2018-09-30T12:17:44.513Z,1.90
2018-09-30T12:20:13.022Z,1.90
2018-09-30T12:22:41.533Z,1.70
2018-09-30T12:25:10.026Z,2.17
2018-09-30T12:27:38.498Z,1.97
2018-09-30T12:30:07.051Z,1.93
2018-09-30T12:32:35.543Z,1.90
2018-09-30T12:35:04.217Z,2.10
2018-09-30T12:37:32.713Z,1.73
2018-09-30T12:40:01.217Z,1.93
2018-09-30T12:42:29.702Z,1.87
2018-09-30T12:44:58.198Z,2.00
2018-09-30T12:47:26.706Z,1.80
2018-09-30T12:49:55.229Z,1.73
2018-09-30T12:52:23.716Z,1.97
2018-09-30T12:54:52.200Z,1.60
2018-09-30T12:57:20.700Z,2.10
2018-09-30T12:59:49.187Z,1.70
2018-09-30T13:02:17.699Z,2.37
2018-09-30T13:04:46.183Z,2.00
2018-09-30T13:07:14.685Z,2.00
2018-09-30T13:09:43.205Z,2.40
2018-09-30T13:12:13.520Z,2.03
2018-09-30T13:14:43.168Z,2.03
2018-09-30T13:17:11.635Z,2.00
2018-09-30T13:19:40.169Z,2.23
2018-09-30T13:22:08.693Z,2.10
2018-09-30T13:24:37.168Z,1.73
2018-09-30T13:27:05.723Z,2.13
2018-09-30T13:29:34.844Z,2.13
2018-09-30T13:32:03.346Z,1.80
2018-09-30T13:34:31.807Z,2.17
2018-09-30T13:37:00.309Z,1.90
2018-09-30T13:39:28.838Z,2.10
2018-09-30T13:41:57.335Z,2.23
2018-09-30T13:44:25.891Z,2.57
2018-09-30T13:46:54.377Z,2.43
2018-09-30T13:49:22.860Z,1.87
2018-09-30T13:51:51.347Z,2.07
2018-09-30T13:54:19.837Z,2.23
2018-09-30T13:56:48.343Z,2.00
2018-09-30T13:59:16.831Z,2.00
2018-09-30T14:01:45.326Z,1.43
2018-09-30T14:04:13.812Z,1.73
2018-09-30T14:06:42.308Z,1.60
2018-09-30T14:09:11.349Z,1.83
2018-09-30T14:11:39.852Z,2.30
2018-09-30T14:14:08.347Z,1.80
2018-09-30T14:16:36.856Z,2.30
2018-09-30T14:19:05.412Z,2.20
2018-09-30T14:21:33.946Z,1.63
2018-09-30T14:24:02.433Z,1.90
2018-09-30T14:26:30.932Z,1.67
2018-09-30T14:28:59.436Z,1.73
2018-09-30T14:31:27.954Z,2.40
2018-09-30T14:33:56.447Z,2.17
2018-09-30T14:36:24.943Z,2.23
2018-09-30T14:38:53.424Z,1.93
2018-09-30T14:41:21.906Z,1.93
2018-09-30T14:43:50.412Z,2.27
2018-09-30T14:46:18.879Z,1.93
2018-09-30T14:48:47.355Z,2.00
2018-09-30T14:51:15.852Z,2.40
2018-09-30T14:53:44.373Z,1.80
2018-09-30T14:56:12.859Z,1.93
2018-09-30T14:58:41.344Z,2.07
2018-09-30T15:01:09.823Z,1.93
2018-09-30T15:03:38.341Z,1.97
2018-09-30T15:06:06.897Z,2.10
2018-09-30T15:08:35.332Z,1.87
2018-09-30T15:11:03.845Z,1.80
2018-09-30T15:13:32.345Z,1.97
2018-09-30T15:16:00.828Z,1.83
2018-09-30T15:18:29.335Z,1.63
2018-09-30T15:20:57.815Z,1.73
2018-09-30T15:23:26.301Z,1.60
2018-09-30T15:25:54.799Z,2.07
2018-09-30T15:28:23.372Z,1.57
2018-09-30T15:30:51.865Z,1.63
2018-09-30T15:33:20.356Z,1.87
2018-09-30T15:35:48.936Z,1.93
2018-09-30T15:38:17.460Z,1.73
2018-09-30T15:40:45.942Z,2.40
2018-09-30T15:43:14.465Z,2.23
2018-09-30T15:45:42.980Z,2.20
2018-09-30T15:48:11.457Z,1.80
2018-09-30T15:50:39.960Z,2.57
2018-09-30T15:53:08.444Z,2.20
2018-09-30T15:55:36.940Z,1.40
2018-09-30T15:58:05.494Z,2.03
2018-09-30T16:00:33.969Z,1.53
2018-09-30T16:03:02.449Z,1.60
2018-09-30T16:05:30.947Z,1.87
2018-09-30T16:07:59.433Z,2.17
2018-09-30T16:10:27.981Z,1.57
2018-09-30T16:12:56.516Z,1.70
2018-09-30T16:15:24.978Z,2.50
2018-09-30T16:17:53.489Z,2.03
2018-09-30T16:20:22.013Z,1.60
2018-09-30T16:22:50.599Z,2.13
2018-09-30T16:25:19.100Z,1.40
2018-09-30T16:27:47.663Z,1.97
2018-09-30T16:30:16.138Z,2.20
2018-09-30T16:32:44.679Z,2.13
2018-09-30T16:35:13.244Z,1.43
2018-09-30T16:37:42.598Z,1.40
2018-09-30T16:40:11.114Z,1.77
2018-09-30T16:42:39.579Z,1.47
2018-09-30T16:45:08.135Z,1.50
2018-09-30T16:47:36.620Z,2.33
2018-09-30T16:50:05.144Z,1.50
2018-09-30T16:52:33.641Z,1.47
2018-09-30T16:55:02.185Z,1.43
2018-09-30T16:57:30.701Z,1.50
2018-09-30T16:59:59.224Z,1.30
2018-09-30T17:02:27.724Z,1.20
2018-09-30T17:04:56.213Z,1.60
2018-09-30T17:07:24.765Z,1.33
2018-09-30T17:09:53.272Z,1.10
2018-09-30T17:12:21.850Z,1.17
2018-09-30T17:14:50.463Z,1.30
2018-09-30T17:17:19.016Z,1.43
2018-09-30T17:19:47.524Z,1.77
2018-09-30T17:22:16.054Z,1.30
2018-09-30T17:24:44.642Z,1.57
2018-09-30T17:27:13.172Z,1.43
2018-09-30T17:29:41.680Z,2.07
2018-09-30T17:32:10.170Z,1.37
2018-09-30T17:34:38.657Z,1.60
2018-09-30T17:37:07.173Z,1.50
2018-09-30T17:39:35.642Z,1.30
2018-09-30T17:42:04.190Z,1.20
2018-09-30T17:44:32.715Z,1.40
2018-09-30T17:47:01.245Z,1.40
2018-09-30T17:49:29.747Z,1.90
2018-09-30T17:51:58.296Z,1.53
2018-09-30T17:54:26.837Z,1.33
2018-09-30T17:56:55.697Z,1.33
2018-09-30T17:59:24.244Z,1.60
2018-09-30T18:01:52.766Z,1.43
2018-09-30T18:04:21.257Z,2.50
2018-09-30T18:06:49.781Z,2.40
2018-09-30T18:09:18.264Z,2.40
2018-09-30T18:11:46.798Z,1.80
2018-09-30T18:14:15.284Z,1.77
2018-09-30T18:16:43.808Z,1.67
2018-09-30T18:19:12.292Z,2.07
2018-09-30T18:21:40.790Z,1.30
2018-09-30T18:24:09.284Z,1.33
2018-09-30T18:26:38.052Z,1.13
2018-09-30T18:29:06.574Z,1.50
2018-09-30T18:31:35.364Z,1.53
2018-09-30T18:34:03.911Z,1.27
2018-09-30T18:36:32.390Z,1.50
2018-09-30T18:39:00.953Z,1.20
2018-09-30T18:41:29.968Z,1.73
2018-09-30T18:43:58.640Z,1.60
2018-09-30T18:46:27.425Z,1.40
2018-09-30T18:48:56.250Z,1.20
2018-09-30T18:51:25.057Z,1.50
2018-09-30T18:53:53.885Z,1.23
2018-09-30T18:56:22.792Z,1.27
2018-09-30T18:58:51.586Z,1.37
2018-09-30T19:01:20.418Z,1.37
2018-09-30T19:03:49.217Z,1.40
2018-09-30T19:06:18.198Z,1.37
2018-09-30T19:08:47.104Z,1.63
2018-09-30T19:11:15.938Z,1.30
2018-09-30T19:13:44.711Z,0.73
2018-09-30T19:16:13.654Z,0.87
2018-09-30T19:18:42.420Z,0.70
2018-09-30T19:21:11.163Z,0.80
2018-09-30T19:23:39.847Z,0.40
2018-09-30T19:26:08.413Z,0.40
2018-09-30T19:28:36.926Z,0.37
2018-09-30T19:31:05.424Z,0.23
2018-09-30T19:33:33.949Z,0.40
2018-09-30T19:36:03.403Z,0.50
2018-09-30T19:38:31.911Z,0.30
2018-09-30T19:41:00.453Z,0.33
2018-09-30T19:43:28.963Z,0.40
2018-09-30T19:45:57.457Z,0.20
2018-09-30T19:48:26.076Z,0.20
2018-09-30T19:50:54.523Z,0.20
2018-09-30T19:53:23.000Z,0.40
2018-09-30T19:55:51.529Z,0.20
2018-09-30T19:58:20.011Z,0.10
2018-09-30T20:00:48.511Z,0.10
2018-09-30T20:03:17.106Z,0.00
2018-09-30T20:05:45.588Z,0.07
2018-09-30T20:08:14.119Z,0.20
2018-09-30T20:10:42.647Z,0.10
2018-09-30T20:13:11.152Z,0.10
2018-09-30T20:15:39.643Z,0.10
2018-09-30T20:18:08.180Z,0.23
2018-09-30T20:20:36.719Z,0.07
2018-09-30T20:23:05.276Z,0.10
2018-09-30T20:25:33.807Z,0.07
2018-09-30T20:28:02.361Z,0.10
2018-09-30T20:30:30.928Z,0.43
2018-09-30T20:32:59.415Z,0.10
2018-09-30T20:35:27.923Z,0.20
2018-09-30T20:37:56.453Z,0.30
2018-09-30T20:40:24.963Z,0.00
2018-09-30T20:42:53.497Z,0.13
2018-09-30T20:45:22.015Z,0.10
2018-09-30T20:47:50.496Z,0.40
2018-09-30T20:50:19.023Z,0.20
2018-09-30T20:52:47.550Z,0.17
2018-09-30T20:55:16.047Z,0.17
2018-09-30T20:57:44.587Z,0.10
2018-09-30T21:00:13.143Z,0.23
2018-09-30T21:02:41.686Z,0.20
2018-09-30T21:05:24.723Z,0.10
2018-09-30T21:07:53.230Z,0.00
2018-09-30T21:10:21.749Z,0.20
2018-09-30T21:12:50.287Z,0.10
2018-09-30T21:15:18.805Z,0.13
2018-09-30T21:17:47.356Z,0.30
2018-09-30T21:20:15.845Z,0.00
2018-09-30T21:22:44.338Z,0.20
2018-09-30T21:25:12.827Z,0.10
2018-09-30T21:27:41.315Z,0.10
2018-09-30T21:30:09.833Z,0.23
2018-09-30T21:32:38.348Z,0.20
2018-09-30T21:35:06.981Z,0.50
2018-09-30T21:37:35.486Z,0.10
2018-09-30T21:40:04.025Z,0.20
2018-09-30T21:42:32.547Z,0.17
2018-09-30T21:45:01.044Z,0.17
2018-09-30T21:47:29.529Z,0.10
2018-09-30T21:49:58.013Z,0.07
2018-09-30T21:52:26.608Z,0.10
2018-09-30T21:54:55.176Z,0.10
2018-09-30T21:57:23.630Z,0.13
2018-09-30T21:59:52.116Z,0.00
2018-09-30T22:02:20.660Z,0.07
2018-09-30T22:04:49.154Z,0.20
2018-09-30T22:07:17.650Z,0.00
2018-09-30T22:09:47.294Z,0.27
2018-09-30T22:12:15.788Z,0.17
2018-09-30T22:14:44.271Z,0.07
2018-09-30T22:17:12.788Z,0.30
2018-09-30T22:19:41.283Z,0.10
2018-09-30T22:22:09.785Z,0.03
2018-09-30T22:24:38.293Z,0.10
2018-09-30T22:27:06.789Z,0.10
2018-09-30T22:29:35.282Z,0.10
2018-09-30T22:32:03.824Z,0.00
2018-09-30T22:34:32.329Z,0.30
2018-09-30T22:37:00.809Z,0.00
2018-09-30T22:39:29.300Z,0.10
2018-09-30T22:41:57.773Z,0.20
2018-09-30T22:44:26.362Z,0.20
2018-09-30T22:46:54.843Z,0.00
2018-09-30T22:49:23.340Z,0.00
2018-09-30T22:51:51.848Z,0.00
2018-09-30T22:54:20.335Z,0.00
2018-09-30T22:56:48.837Z,0.00
2018-09-30T22:59:17.345Z,0.00
2018-09-30T23:01:45.868Z,0.00
2018-09-30T23:04:14.353Z,0.00
2018-09-30T23:06:42.863Z,0.00
2018-09-30T23:09:11.365Z,0.00
2018-09-30T23:11:39.865Z,0.10
2018-09-30T23:14:08.381Z,0.13
2018-09-30T23:16:36.871Z,0.00
2018-09-30T23:19:05.353Z,0.00
2018-09-30T23:21:33.845Z,0.00
2018-09-30T23:24:02.328Z,0.00
2018-09-30T23:26:30.840Z,0.00
2018-09-30T23:28:59.353Z,0.00
2018-09-30T23:31:27.817Z,0.00
2018-09-30T23:33:56.314Z,0.00
2018-09-30T23:36:24.840Z,0.00
2018-09-30T23:38:53.308Z,0.00
2018-09-30T23:41:21.805Z,0.00
2018-09-30T23:43:50.279Z,0.00
2018-09-30T23:46:18.782Z,0.00
2018-09-30T23:48:47.248Z,0.07
2018-09-30T23:51:15.781Z,0.00
2018-09-30T23:53:44.288Z,0.00
2018-09-30T23:56:12.754Z,0.00
2018-09-30T23:58:41.256Z,0.00
